Simpsonville, MD (21150)

5:27 AM EDT en Octubre 25, 2014 (GMT -0400)
Kings Contrivance Village, Dickinson Neighborhood | Change Station
CLOSE
Current Station
Estación meteorológica personal
Location: Columbia, MD
Altura: 322 ft
Estaciones meteorológicas cercanas

Alt 322 ft 39.16 °N, 76.86 °W | Updated 11 seconds ago

Despejado
Despejado
43.2 ° F
Sensación térmica 43 ° F
N
0.0
Viento Variable Viento desde ESE
Gusts 0.0 mph

Hoy
Alta -- | Baja -- ° F
--% Posibilidad de precipitaciones
Ayer
Alta -- | Baja -- ° F
Precip. -- pul
7:27 AM 6:14 PM
Luna nueva, 2% visible
Presión 29.97 pul
Visibilidad 7.0 Millas
Nubes Despejado
Vientos helados 43 ° F
Punto de rocío 40 ° F
Humedad 87%
Precipitaciones 0.00 pul
Espesor de la nieve No disponible.
UV 0.0 de una escala de 12
Polen 1.90 de una escala de 12
Calidad del aire No disponible.
Flu Activity Sporadic
METAR KFME 250918Z AUTO 00000KT 7SM CLR 03/02 A2997 RMK AO1

More Conditions Fewer Conditions

Presión 29.97 pul
Visibilidad 7.0 Millas
Nubes Despejado
Vientos helados 43 ° F
Punto de rocío 40 ° F
Humedad 87%
Precipitaciones 0.00 pul
Espesor de la nieve No disponible.
UV 0.0 de una escala de 12
Polen 1.90 de una escala de 12
Calidad del aire No disponible.
Flu Activity Sporadic
METAR KFME 250918Z AUTO 00000KT 7SM CLR 03/02 A2997 RMK AO1

More Conditions Fewer Conditions

10-Day Weather Forecast

Almanac

Astronomía

Oct. 25, 2014 Salida Puesta
Hora real 7:27 AM EDT 6:14 PM EDT
Crepúsculo civil 7:00 AM EDT 6:42 PM EDT
Crepúsculo náutico 6:28 AM EDT 7:13 PM EDT
Crepúsculo astronómico 5:57 AM EDT 7:44 PM EDT
Luna 9:03 AM EDT 7:37 PM EDT
Horas de luz 11h 42m
Horas de luz
10h 47m
Tomorrow will be 2m 21s shorter.
Luna nueva, 2% of the Moon is Illuminated
Hoy
Luna nueva
Oct 30
Cuarto creciente
Nov 6
Luna llena
Nov 14
Cuarto menguante
Nov 22
Nueva

Extremos de hoy

Máximos del estado Bajos del estado

Community

WunderPhotos

Upload Photos

1,764,796 ¡fotos cargadas!

Nearby

Grosos de nieve

Estación Profundido Altura
No tenemos constancia de nieve nueva.

Actividad de terremotos

Ciudad Distance Mag. Tiempo y dato
No hay informes recientes de la actividad sísmica.
Magnitud mínima muestra es 2,5.

Temperaturas de aguas costeras

Lugar Temperatura
Baltimore, MD 64.0 ° F
Tolchester Beach, MD 59.0 ° F
Washington, DC 60.1 ° F

Estaciones meteorológicas cercanas